sensor_id;sensor_type;location;lat;lon;timestamp;P1;durP1;ratioP1;P2;durP2;ratioP2
21862;SDS011;11096;51.338;12.524;2023-02-05T00:00:19;1.45;;;1.25;;
21862;SDS011;11096;51.338;12.524;2023-02-05T00:02:45;2.38;;;1.25;;
21862;SDS011;11096;51.338;12.524;2023-02-05T00:05:10;1.30;;;1.13;;
21862;SDS011;11096;51.338;12.524;2023-02-05T00:07:36;2.65;;;1.60;;
21862;SDS011;11096;51.338;12.524;2023-02-05T00:10:01;2.58;;;1.00;;
21862;SDS011;11096;51.338;12.524;2023-02-05T00:12:26;2.63;;;1.20;;
21862;SDS011;11096;51.338;12.524;2023-02-05T00:14:52;2.47;;;1.10;;
21862;SDS011;11096;51.338;12.524;2023-02-05T00:17:17;1.67;;;1.17;;
21862;SDS011;11096;51.338;12.524;2023-02-05T00:19:42;1.30;;;1.00;;
21862;SDS011;11096;51.338;12.524;2023-02-05T00:22:07;2.88;;;1.38;;
21862;SDS011;11096;51.338;12.524;2023-02-05T00:24:33;1.23;;;1.10;;
21862;SDS011;11096;51.338;12.524;2023-02-05T00:26:58;2.10;;;1.30;;
21862;SDS011;11096;51.338;12.524;2023-02-05T00:29:23;1.40;;;1.30;;
21862;SDS011;11096;51.338;12.524;2023-02-05T00:31:49;1.73;;;1.05;;
21862;SDS011;11096;51.338;12.524;2023-02-05T00:34:14;1.25;;;1.10;;
21862;SDS011;11096;51.338;12.524;2023-02-05T00:36:40;1.55;;;1.08;;
21862;SDS011;11096;51.338;12.524;2023-02-05T00:39:05;1.55;;;1.30;;
21862;SDS011;11096;51.338;12.524;2023-02-05T00:41:31;1.60;;;1.10;;
21862;SDS011;11096;51.338;12.524;2023-02-05T00:43:56;1.08;;;0.98;;
21862;SDS011;11096;51.338;12.524;2023-02-05T00:46:21;1.77;;;1.17;;
21862;SDS011;11096;51.338;12.524;2023-02-05T00:48:47;3.00;;;1.10;;
21862;SDS011;11096;51.338;12.524;2023-02-05T00:51:12;1.10;;;1.00;;
21862;SDS011;11096;51.338;12.524;2023-02-05T00:53:37;3.50;;;1.33;;
21862;SDS011;11096;51.338;12.524;2023-02-05T00:56:03;1.38;;;1.10;;
21862;SDS011;11096;51.338;12.524;2023-02-05T00:58:28;1.63;;;1.10;;
21862;SDS011;11096;51.338;12.524;2023-02-05T01:00:55;1.50;;;1.13;;
21862;SDS011;11096;51.338;12.524;2023-02-05T01:03:21;1.88;;;1.23;;
21862;SDS011;11096;51.338;12.524;2023-02-05T01:05:46;3.95;;;1.20;;
21862;SDS011;11096;51.338;12.524;2023-02-05T01:08:12;2.53;;;1.13;;
21862;SDS011;11096;51.338;12.524;2023-02-05T01:10:41;1.90;;;1.20;;
21862;SDS011;11096;51.338;12.524;2023-02-05T01:13:07;2.17;;;1.20;;
21862;SDS011;11096;51.338;12.524;2023-02-05T01:15:33;1.27;;;1.17;;
21862;SDS011;11096;51.338;12.524;2023-02-05T01:17:59;1.10;;;1.00;;
21862;SDS011;11096;51.338;12.524;2023-02-05T01:20:24;1.33;;;1.17;;
21862;SDS011;11096;51.338;12.524;2023-02-05T01:22:50;2.83;;;1.20;;
21862;SDS011;11096;51.338;12.524;2023-02-05T01:25:15;2.78;;;1.23;;
21862;SDS011;11096;51.338;12.524;2023-02-05T01:27:40;1.73;;;1.33;;
21862;SDS011;11096;51.338;12.524;2023-02-05T01:30:06;3.97;;;1.60;;
21862;SDS011;11096;51.338;12.524;2023-02-05T01:32:32;5.07;;;1.52;;
21862;SDS011;11096;51.338;12.524;2023-02-05T01:34:57;4.35;;;1.27;;
21862;SDS011;11096;51.338;12.524;2023-02-05T01:37:22;5.65;;;1.65;;
21862;SDS011;11096;51.338;12.524;2023-02-05T01:39:48;1.70;;;1.33;;
21862;SDS011;11096;51.338;12.524;2023-02-05T01:42:17;1.77;;;1.50;;
21862;SDS011;11096;51.338;12.524;2023-02-05T01:44:43;2.90;;;1.30;;
21862;SDS011;11096;51.338;12.524;2023-02-05T01:47:08;1.77;;;1.27;;
21862;SDS011;11096;51.338;12.524;2023-02-05T01:49:35;2.47;;;1.40;;
21862;SDS011;11096;51.338;12.524;2023-02-05T01:52:02;2.15;;;1.30;;
21862;SDS011;11096;51.338;12.524;2023-02-05T01:54:30;3.33;;;1.73;;
21862;SDS011;11096;51.338;12.524;2023-02-05T01:56:59;2.45;;;1.73;;
21862;SDS011;11096;51.338;12.524;2023-02-05T01:59:26;1.98;;;1.40;;
21862;SDS011;11096;51.338;12.524;2023-02-05T02:01:52;3.10;;;1.48;;
21862;SDS011;11096;51.338;12.524;2023-02-05T02:04:38;3.60;;;2.03;;
21862;SDS011;11096;51.338;12.524;2023-02-05T02:07:04;1.70;;;1.50;;
21862;SDS011;11096;51.338;12.524;2023-02-05T02:09:30;2.38;;;1.25;;
21862;SDS011;11096;51.338;12.524;2023-02-05T02:11:55;4.15;;;1.50;;
21862;SDS011;11096;51.338;12.524;2023-02-05T02:14:22;1.20;;;1.20;;
21862;SDS011;11096;51.338;12.524;2023-02-05T02:16:47;1.65;;;1.15;;
21862;SDS011;11096;51.338;12.524;2023-02-05T02:19:22;2.10;;;1.23;;
21862;SDS011;11096;51.338;12.524;2023-02-05T02:27:38;1.17;;;1.05;;
21862;SDS011;11096;51.338;12.524;2023-02-05T02:32:37;4.88;;;1.67;;
21862;SDS011;11096;51.338;12.524;2023-02-05T02:35:09;3.53;;;1.48;;
21862;SDS011;11096;51.338;12.524;2023-02-05T02:37:38;2.70;;;1.52;;
21862;SDS011;11096;51.338;12.524;2023-02-05T02:40:08;1.65;;;1.55;;
21862;SDS011;11096;51.338;12.524;2023-02-05T02:42:40;2.67;;;1.30;;
21862;SDS011;11096;51.338;12.524;2023-02-05T02:45:07;1.52;;;1.20;;
21862;SDS011;11096;51.338;12.524;2023-02-05T02:47:52;2.65;;;1.20;;
21862;SDS011;11096;51.338;12.524;2023-02-05T02:50:25;2.05;;;1.23;;
21862;SDS011;11096;51.338;12.524;2023-02-05T02:52:56;1.25;;;1.15;;
21862;SDS011;11096;51.338;12.524;2023-02-05T02:55:23;0.95;;;0.90;;
21862;SDS011;11096;51.338;12.524;2023-02-05T02:57:49;2.22;;;1.15;;
21862;SDS011;11096;51.338;12.524;2023-02-05T03:00:17;1.40;;;1.30;;
21862;SDS011;11096;51.338;12.524;2023-02-05T03:02:44;4.93;;;1.15;;
21862;SDS011;11096;51.338;12.524;2023-02-05T03:05:10;1.35;;;1.25;;
21862;SDS011;11096;51.338;12.524;2023-02-05T03:07:39;2.70;;;0.90;;
21862;SDS011;11096;51.338;12.524;2023-02-05T03:12:31;2.70;;;1.10;;
21862;SDS011;11096;51.338;12.524;2023-02-05T03:14:56;1.67;;;1.08;;
21862;SDS011;11096;51.338;12.524;2023-02-05T03:17:21;3.92;;;1.35;;
21862;SDS011;11096;51.338;12.524;2023-02-05T03:19:49;3.90;;;1.63;;
21862;SDS011;11096;51.338;12.524;2023-02-05T03:22:16;2.47;;;1.45;;
21862;SDS011;11096;51.338;12.524;2023-02-05T03:24:41;2.75;;;1.02;;
21862;SDS011;11096;51.338;12.524;2023-02-05T03:27:07;3.83;;;1.10;;
21862;SDS011;11096;51.338;12.524;2023-02-05T03:29:34;1.42;;;1.20;;
21862;SDS011;11096;51.338;12.524;2023-02-05T03:32:04;3.40;;;1.48;;
21862;SDS011;11096;51.338;12.524;2023-02-05T03:37:08;1.50;;;1.05;;
21862;SDS011;11096;51.338;12.524;2023-02-05T03:50:58;1.98;;;1.42;;
21862;SDS011;11096;51.338;12.524;2023-02-05T03:55:48;2.67;;;1.17;;
21862;SDS011;11096;51.338;12.524;2023-02-05T03:58:23;4.30;;;1.98;;
21862;SDS011;11096;51.338;12.524;2023-02-05T04:00:50;1.67;;;1.40;;
21862;SDS011;11096;51.338;12.524;2023-02-05T04:03:16;1.80;;;1.27;;
21862;SDS011;11096;51.338;12.524;2023-02-05T04:05:41;2.05;;;1.50;;
21862;SDS011;11096;51.338;12.524;2023-02-05T04:08:06;2.03;;;1.60;;
21862;SDS011;11096;51.338;12.524;2023-02-05T04:10:32;1.55;;;1.25;;
21862;SDS011;11096;51.338;12.524;2023-02-05T04:12:57;1.40;;;1.30;;
21862;SDS011;11096;51.338;12.524;2023-02-05T04:15:22;1.45;;;1.20;;
21862;SDS011;11096;51.338;12.524;2023-02-05T04:17:47;2.15;;;1.40;;
21862;SDS011;11096;51.338;12.524;2023-02-05T04:20:14;3.05;;;1.77;;
21862;SDS011;11096;51.338;12.524;2023-02-05T04:22:39;1.98;;;1.50;;
21862;SDS011;11096;51.338;12.524;2023-02-05T04:25:04;3.80;;;1.60;;
21862;SDS011;11096;51.338;12.524;2023-02-05T04:27:30;1.95;;;1.30;;
21862;SDS011;11096;51.338;12.524;2023-02-05T04:29:55;1.73;;;1.50;;
21862;SDS011;11096;51.338;12.524;2023-02-05T04:32:20;1.92;;;1.48;;
21862;SDS011;11096;51.338;12.524;2023-02-05T04:34:46;2.55;;;1.60;;
21862;SDS011;11096;51.338;12.524;2023-02-05T04:37:11;2.05;;;1.52;;
21862;SDS011;11096;51.338;12.524;2023-02-05T04:39:36;2.28;;;1.42;;
21862;SDS011;11096;51.338;12.524;2023-02-05T04:42:01;2.78;;;1.60;;
21862;SDS011;11096;51.338;12.524;2023-02-05T04:44:27;2.55;;;1.60;;
21862;SDS011;11096;51.338;12.524;2023-02-05T04:46:52;2.25;;;1.13;;
21862;SDS011;11096;51.338;12.524;2023-02-05T04:49:18;2.85;;;1.58;;
21862;SDS011;11096;51.338;12.524;2023-02-05T04:51:43;1.63;;;1.15;;
21862;SDS011;11096;51.338;12.524;2023-02-05T04:54:08;1.63;;;1.52;;
21862;SDS011;11096;51.338;12.524;2023-02-05T04:56:33;1.52;;;1.42;;
21862;SDS011;11096;51.338;12.524;2023-02-05T04:58:59;3.00;;;1.40;;
21862;SDS011;11096;51.338;12.524;2023-02-05T05:01:24;1.58;;;1.33;;
21862;SDS011;11096;51.338;12.524;2023-02-05T05:03:49;2.53;;;1.63;;
21862;SDS011;11096;51.338;12.524;2023-02-05T05:06:15;1.77;;;1.50;;
21862;SDS011;11096;51.338;12.524;2023-02-05T05:08:41;1.65;;;1.35;;
21862;SDS011;11096;51.338;12.524;2023-02-05T05:11:10;2.70;;;1.73;;
21862;SDS011;11096;51.338;12.524;2023-02-05T05:13:36;1.73;;;1.35;;
21862;SDS011;11096;51.338;12.524;2023-02-05T05:16:02;3.22;;;1.40;;
21862;SDS011;11096;51.338;12.524;2023-02-05T05:18:27;2.35;;;1.73;;
21862;SDS011;11096;51.338;12.524;2023-02-05T05:20:53;1.50;;;1.30;;
21862;SDS011;11096;51.338;12.524;2023-02-05T05:23:18;2.67;;;1.45;;
21862;SDS011;11096;51.338;12.524;2023-02-05T05:25:44;1.30;;;1.20;;
21862;SDS011;11096;51.338;12.524;2023-02-05T05:28:10;2.95;;;1.58;;
21862;SDS011;11096;51.338;12.524;2023-02-05T05:30:39;1.42;;;1.15;;
21862;SDS011;11096;51.338;12.524;2023-02-05T05:33:04;2.17;;;1.40;;
21862;SDS011;11096;51.338;12.524;2023-02-05T05:35:29;2.42;;;1.40;;
21862;SDS011;11096;51.338;12.524;2023-02-05T05:37:55;2.72;;;1.60;;
21862;SDS011;11096;51.338;12.524;2023-02-05T05:40:20;4.50;;;2.30;;
21862;SDS011;11096;51.338;12.524;2023-02-05T05:43:04;1.63;;;1.52;;
21862;SDS011;11096;51.338;12.524;2023-02-05T05:45:48;2.00;;;1.33;;
21862;SDS011;11096;51.338;12.524;2023-02-05T05:48:13;3.83;;;1.70;;
21862;SDS011;11096;51.338;12.524;2023-02-05T05:50:38;2.80;;;1.77;;
21862;SDS011;11096;51.338;12.524;2023-02-05T05:53:04;2.70;;;1.83;;
21862;SDS011;11096;51.338;12.524;2023-02-05T05:55:29;2.28;;;1.55;;
21862;SDS011;11096;51.338;12.524;2023-02-05T05:57:54;2.63;;;1.35;;
21862;SDS011;11096;51.338;12.524;2023-02-05T06:00:19;3.60;;;1.63;;
21862;SDS011;11096;51.338;12.524;2023-02-05T06:02:45;2.42;;;1.67;;
21862;SDS011;11096;51.338;12.524;2023-02-05T06:05:10;4.25;;;2.00;;
21862;SDS011;11096;51.338;12.524;2023-02-05T06:07:35;4.82;;;2.50;;
21862;SDS011;11096;51.338;12.524;2023-02-05T06:10:01;3.90;;;1.63;;
21862;SDS011;11096;51.338;12.524;2023-02-05T06:12:26;3.78;;;2.15;;
21862;SDS011;11096;51.338;12.524;2023-02-05T06:14:51;3.25;;;1.90;;
21862;SDS011;11096;51.338;12.524;2023-02-05T06:17:17;3.08;;;2.00;;
21862;SDS011;11096;51.338;12.524;2023-02-05T06:19:42;4.68;;;1.95;;
21862;SDS011;11096;51.338;12.524;2023-02-05T06:22:07;4.45;;;1.77;;
21862;SDS011;11096;51.338;12.524;2023-02-05T06:24:32;5.20;;;2.00;;
21862;SDS011;11096;51.338;12.524;2023-02-05T06:26:58;5.20;;;2.08;;
21862;SDS011;11096;51.338;12.524;2023-02-05T06:29:23;3.58;;;1.70;;
21862;SDS011;11096;51.338;12.524;2023-02-05T06:31:48;2.42;;;1.75;;
21862;SDS011;11096;51.338;12.524;2023-02-05T06:34:13;4.13;;;1.92;;
21862;SDS011;11096;51.338;12.524;2023-02-05T06:36:39;2.60;;;1.73;;
21862;SDS011;11096;51.338;12.524;2023-02-05T06:39:04;3.72;;;2.00;;
21862;SDS011;11096;51.338;12.524;2023-02-05T06:41:29;5.93;;;1.75;;
21862;SDS011;11096;51.338;12.524;2023-02-05T06:43:54;3.92;;;2.05;;
21862;SDS011;11096;51.338;12.524;2023-02-05T06:46:20;1.50;;;1.27;;
21862;SDS011;11096;51.338;12.524;2023-02-05T06:48:45;3.25;;;1.75;;
21862;SDS011;11096;51.338;12.524;2023-02-05T06:51:10;2.25;;;1.65;;
21862;SDS011;11096;51.338;12.524;2023-02-05T06:53:37;2.47;;;1.52;;
21862;SDS011;11096;51.338;12.524;2023-02-05T06:56:02;5.18;;;2.30;;
21862;SDS011;11096;51.338;12.524;2023-02-05T06:58:28;2.38;;;1.75;;
21862;SDS011;11096;51.338;12.524;2023-02-05T07:00:53;1.90;;;1.35;;
21862;SDS011;11096;51.338;12.524;2023-02-05T07:03:18;5.60;;;2.00;;
21862;SDS011;11096;51.338;12.524;2023-02-05T07:05:43;1.80;;;1.40;;
21862;SDS011;11096;51.338;12.524;2023-02-05T07:08:09;3.67;;;1.75;;
21862;SDS011;11096;51.338;12.524;2023-02-05T07:10:34;2.78;;;1.65;;
21862;SDS011;11096;51.338;12.524;2023-02-05T07:12:59;2.35;;;1.55;;
21862;SDS011;11096;51.338;12.524;2023-02-05T07:15:24;1.92;;;1.25;;
21862;SDS011;11096;51.338;12.524;2023-02-05T07:17:50;4.32;;;1.92;;
21862;SDS011;11096;51.338;12.524;2023-02-05T07:20:15;1.75;;;1.65;;
21862;SDS011;11096;51.338;12.524;2023-02-05T07:22:40;2.97;;;1.85;;
21862;SDS011;11096;51.338;12.524;2023-02-05T07:25:06;3.45;;;1.98;;
21862;SDS011;11096;51.338;12.524;2023-02-05T07:27:31;1.92;;;1.27;;
21862;SDS011;11096;51.338;12.524;2023-02-05T07:29:57;2.63;;;1.73;;
21862;SDS011;11096;51.338;12.524;2023-02-05T07:32:22;3.70;;;1.65;;
21862;SDS011;11096;51.338;12.524;2023-02-05T07:34:47;2.45;;;1.83;;
21862;SDS011;11096;51.338;12.524;2023-02-05T07:37:12;5.10;;;1.95;;
21862;SDS011;11096;51.338;12.524;2023-02-05T07:39:38;2.47;;;1.83;;
21862;SDS011;11096;51.338;12.524;2023-02-05T07:42:03;5.32;;;2.10;;
21862;SDS011;11096;51.338;12.524;2023-02-05T07:44:28;7.75;;;2.55;;
21862;SDS011;11096;51.338;12.524;2023-02-05T07:46:54;4.75;;;2.13;;
21862;SDS011;11096;51.338;12.524;2023-02-05T07:49:19;2.65;;;1.77;;
21862;SDS011;11096;51.338;12.524;2023-02-05T07:51:44;2.17;;;1.73;;
21862;SDS011;11096;51.338;12.524;2023-02-05T07:54:11;2.35;;;2.00;;
21862;SDS011;11096;51.338;12.524;2023-02-05T07:56:36;2.03;;;1.63;;
21862;SDS011;11096;51.338;12.524;2023-02-05T07:59:02;2.72;;;1.95;;
21862;SDS011;11096;51.338;12.524;2023-02-05T08:01:27;4.22;;;2.33;;
21862;SDS011;11096;51.338;12.524;2023-02-05T08:03:52;6.28;;;3.33;;
21862;SDS011;11096;51.338;12.524;2023-02-05T08:06:17;10.98;;;3.65;;
21862;SDS011;11096;51.338;12.524;2023-02-05T08:08:43;9.45;;;3.38;;
21862;SDS011;11096;51.338;12.524;2023-02-05T08:11:14;11.20;;;3.75;;
21862;SDS011;11096;51.338;12.524;2023-02-05T08:13:40;12.63;;;3.58;;
21862;SDS011;11096;51.338;12.524;2023-02-05T08:16:06;9.85;;;3.80;;
21862;SDS011;11096;51.338;12.524;2023-02-05T08:18:31;6.38;;;3.83;;
21862;SDS011;11096;51.338;12.524;2023-02-05T08:20:56;7.72;;;3.72;;
21862;SDS011;11096;51.338;12.524;2023-02-05T08:23:22;6.78;;;3.50;;
21862;SDS011;11096;51.338;12.524;2023-02-05T08:25:47;5.55;;;2.90;;
21862;SDS011;11096;51.338;12.524;2023-02-05T08:28:16;3.25;;;2.08;;
21862;SDS011;11096;51.338;12.524;2023-02-05T08:30:42;4.15;;;1.95;;
21862;SDS011;11096;51.338;12.524;2023-02-05T08:33:07;4.80;;;2.20;;
21862;SDS011;11096;51.338;12.524;2023-02-05T08:35:32;6.65;;;2.10;;
21862;SDS011;11096;51.338;12.524;2023-02-05T08:37:57;4.18;;;2.20;;
21862;SDS011;11096;51.338;12.524;2023-02-05T08:40:23;2.17;;;1.95;;
21862;SDS011;11096;51.338;12.524;2023-02-05T08:42:48;3.17;;;2.03;;
21862;SDS011;11096;51.338;12.524;2023-02-05T08:45:16;7.28;;;2.67;;
21862;SDS011;11096;51.338;12.524;2023-02-05T08:47:42;7.03;;;2.90;;
21862;SDS011;11096;51.338;12.524;2023-02-05T08:50:07;8.18;;;2.83;;
21862;SDS011;11096;51.338;12.524;2023-02-05T08:52:34;7.25;;;3.03;;
21862;SDS011;11096;51.338;12.524;2023-02-05T08:54:59;4.07;;;2.28;;
21862;SDS011;11096;51.338;12.524;2023-02-05T08:57:26;5.53;;;2.17;;
21862;SDS011;11096;51.338;12.524;2023-02-05T08:59:51;6.05;;;3.00;;
21862;SDS011;11096;51.338;12.524;2023-02-05T09:02:16;5.72;;;3.08;;
21862;SDS011;11096;51.338;12.524;2023-02-05T09:04:41;7.68;;;3.63;;
21862;SDS011;11096;51.338;12.524;2023-02-05T09:07:07;6.20;;;3.95;;
21862;SDS011;11096;51.338;12.524;2023-02-05T09:09:32;5.47;;;2.88;;
21862;SDS011;11096;51.338;12.524;2023-02-05T09:11:59;8.63;;;3.08;;
21862;SDS011;11096;51.338;12.524;2023-02-05T09:14:24;3.58;;;2.75;;
21862;SDS011;11096;51.338;12.524;2023-02-05T09:16:49;3.97;;;2.63;;
21862;SDS011;11096;51.338;12.524;2023-02-05T09:19:15;5.20;;;3.00;;
21862;SDS011;11096;51.338;12.524;2023-02-05T09:21:40;4.60;;;3.15;;
21862;SDS011;11096;51.338;12.524;2023-02-05T09:24:05;4.68;;;3.30;;
21862;SDS011;11096;51.338;12.524;2023-02-05T09:26:31;5.90;;;3.00;;
21862;SDS011;11096;51.338;12.524;2023-02-05T09:28:56;6.82;;;3.70;;
21862;SDS011;11096;51.338;12.524;2023-02-05T09:31:21;4.80;;;3.42;;
21862;SDS011;11096;51.338;12.524;2023-02-05T09:33:47;8.30;;;3.22;;
21862;SDS011;11096;51.338;12.524;2023-02-05T09:36:13;5.68;;;3.63;;
21862;SDS011;11096;51.338;12.524;2023-02-05T09:38:39;5.35;;;2.95;;
21862;SDS011;11096;51.338;12.524;2023-02-05T09:48:37;4.30;;;3.17;;
21862;SDS011;11096;51.338;12.524;2023-02-05T09:51:06;8.20;;;3.55;;
21862;SDS011;11096;51.338;12.524;2023-02-05T09:53:34;5.15;;;3.00;;
21862;SDS011;11096;51.338;12.524;2023-02-05T09:56:01;5.63;;;3.35;;
21862;SDS011;11096;51.338;12.524;2023-02-05T09:58:28;5.85;;;4.00;;
21862;SDS011;11096;51.338;12.524;2023-02-05T10:03:44;5.82;;;3.35;;
21862;SDS011;11096;51.338;12.524;2023-02-05T10:11:42;5.55;;;3.33;;
21862;SDS011;11096;51.338;12.524;2023-02-05T10:24:43;5.88;;;3.10;;
21862;SDS011;11096;51.338;12.524;2023-02-05T10:32:17;5.53;;;3.03;;
21862;SDS011;11096;51.338;12.524;2023-02-05T10:35:05;6.80;;;2.78;;
21862;SDS011;11096;51.338;12.524;2023-02-05T10:40:00;4.97;;;2.72;;
21862;SDS011;11096;51.338;12.524;2023-02-05T10:44:58;3.63;;;2.60;;
21862;SDS011;11096;51.338;12.524;2023-02-05T10:47:32;4.78;;;2.95;;
21862;SDS011;11096;51.338;12.524;2023-02-05T10:50:00;4.30;;;2.75;;
21862;SDS011;11096;51.338;12.524;2023-02-05T10:52:27;5.88;;;3.20;;
21862;SDS011;11096;51.338;12.524;2023-02-05T10:54:52;5.47;;;2.92;;
21862;SDS011;11096;51.338;12.524;2023-02-05T10:57:18;6.28;;;2.72;;
21862;SDS011;11096;51.338;12.524;2023-02-05T11:02:12;3.03;;;2.53;;
21862;SDS011;11096;51.338;12.524;2023-02-05T11:07:08;3.47;;;2.63;;
21862;SDS011;11096;51.338;12.524;2023-02-05T11:09:35;4.22;;;2.95;;
21862;SDS011;11096;51.338;12.524;2023-02-05T11:12:01;4.35;;;2.60;;
21862;SDS011;11096;51.338;12.524;2023-02-05T11:14:34;4.15;;;2.63;;
21862;SDS011;11096;51.338;12.524;2023-02-05T11:17:18;5.65;;;2.83;;
21862;SDS011;11096;51.338;12.524;2023-02-05T11:19:53;4.57;;;2.65;;
21862;SDS011;11096;51.338;12.524;2023-02-05T11:22:26;3.92;;;2.65;;
21862;SDS011;11096;51.338;12.524;2023-02-05T11:25:03;2.65;;;2.25;;
21862;SDS011;11096;51.338;12.524;2023-02-05T11:27:34;9.82;;;2.55;;
21862;SDS011;11096;51.338;12.524;2023-02-05T11:32:44;4.97;;;2.60;;
21862;SDS011;11096;51.338;12.524;2023-02-05T11:37:41;2.72;;;2.20;;
21862;SDS011;11096;51.338;12.524;2023-02-05T11:40:16;3.00;;;2.15;;
21862;SDS011;11096;51.338;12.524;2023-02-05T11:42:46;2.50;;;2.30;;
21862;SDS011;11096;51.338;12.524;2023-02-05T11:45:14;4.53;;;2.30;;
21862;SDS011;11096;51.338;12.524;2023-02-05T11:47:43;5.03;;;2.13;;
21862;SDS011;11096;51.338;12.524;2023-02-05T11:50:25;4.65;;;2.33;;
21862;SDS011;11096;51.338;12.524;2023-02-05T11:52:51;3.70;;;2.40;;
21862;SDS011;11096;51.338;12.524;2023-02-05T11:55:23;3.10;;;2.22;;
21862;SDS011;11096;51.338;12.524;2023-02-05T11:57:56;3.42;;;2.08;;
21862;SDS011;11096;51.338;12.524;2023-02-05T12:00:22;4.18;;;2.50;;
21862;SDS011;11096;51.338;12.524;2023-02-05T12:02:47;4.57;;;2.70;;
21862;SDS011;11096;51.338;12.524;2023-02-05T12:05:23;5.30;;;2.33;;
21862;SDS011;11096;51.338;12.524;2023-02-05T12:10:22;3.78;;;2.72;;
21862;SDS011;11096;51.338;12.524;2023-02-05T12:17:51;3.47;;;2.40;;
21862;SDS011;11096;51.338;12.524;2023-02-05T12:33:00;5.53;;;2.70;;
21862;SDS011;11096;51.338;12.524;2023-02-05T12:38:38;4.20;;;2.20;;
21862;SDS011;11096;51.338;12.524;2023-02-05T12:41:13;2.83;;;2.10;;
21862;SDS011;11096;51.338;12.524;2023-02-05T12:43:40;3.20;;;2.17;;
21862;SDS011;11096;51.338;12.524;2023-02-05T12:56:59;5.32;;;2.80;;
21862;SDS011;11096;51.338;12.524;2023-02-05T12:59:34;3.78;;;2.40;;
21862;SDS011;11096;51.338;12.524;2023-02-05T13:02:06;4.35;;;2.25;;
21862;SDS011;11096;51.338;12.524;2023-02-05T13:04:39;3.90;;;2.40;;
21862;SDS011;11096;51.338;12.524;2023-02-05T13:07:09;3.47;;;2.00;;
21862;SDS011;11096;51.338;12.524;2023-02-05T13:12:05;4.40;;;2.20;;
21862;SDS011;11096;51.338;12.524;2023-02-05T13:14:36;3.17;;;2.40;;
21862;SDS011;11096;51.338;12.524;2023-02-05T13:20:10;4.75;;;2.40;;
21862;SDS011;11096;51.338;12.524;2023-02-05T13:25:24;2.63;;;2.08;;
21862;SDS011;11096;51.338;12.524;2023-02-05T13:28:05;3.47;;;1.85;;
21862;SDS011;11096;51.338;12.524;2023-02-05T13:30:56;2.30;;;1.92;;
21862;SDS011;11096;51.338;12.524;2023-02-05T13:33:21;3.83;;;1.80;;
21862;SDS011;11096;51.338;12.524;2023-02-05T13:38:44;3.15;;;2.50;;
21862;SDS011;11096;51.338;12.524;2023-02-05T13:41:19;4.10;;;2.10;;
21862;SDS011;11096;51.338;12.524;2023-02-05T13:49:11;3.92;;;2.33;;
21862;SDS011;11096;51.338;12.524;2023-02-05T13:51:46;4.65;;;2.28;;
21862;SDS011;11096;51.338;12.524;2023-02-05T13:59:36;4.13;;;2.28;;
21862;SDS011;11096;51.338;12.524;2023-02-05T14:02:02;3.40;;;2.17;;
21862;SDS011;11096;51.338;12.524;2023-02-05T14:04:38;3.67;;;2.67;;
21862;SDS011;11096;51.338;12.524;2023-02-05T14:07:05;6.32;;;2.40;;
21862;SDS011;11096;51.338;12.524;2023-02-05T14:09:42;2.70;;;2.05;;
21862;SDS011;11096;51.338;12.524;2023-02-05T14:12:12;3.47;;;2.30;;
21862;SDS011;11096;51.338;12.524;2023-02-05T14:14:45;2.85;;;2.22;;
21862;SDS011;11096;51.338;12.524;2023-02-05T14:19:55;3.17;;;2.08;;
21862;SDS011;11096;51.338;12.524;2023-02-05T14:36:33;1.95;;;1.75;;
21862;SDS011;11096;51.338;12.524;2023-02-05T14:38:40;3.10;;;2.08;;
21862;SDS011;11096;51.338;12.524;2023-02-05T14:41:10;5.88;;;1.98;;
21862;SDS011;11096;51.338;12.524;2023-02-05T14:43:36;3.53;;;2.17;;
21862;SDS011;11096;51.338;12.524;2023-02-05T14:46:03;3.15;;;1.88;;
21862;SDS011;11096;51.338;12.524;2023-02-05T14:48:30;4.85;;;1.85;;
21862;SDS011;11096;51.338;12.524;2023-02-05T14:50:59;3.28;;;1.88;;
21862;SDS011;11096;51.338;12.524;2023-02-05T14:53:25;3.88;;;2.00;;
21862;SDS011;11096;51.338;12.524;2023-02-05T14:55:50;4.60;;;2.70;;
21862;SDS011;11096;51.338;12.524;2023-02-05T14:58:23;3.75;;;1.90;;
21862;SDS011;11096;51.338;12.524;2023-02-05T15:00:49;3.25;;;2.53;;
21862;SDS011;11096;51.338;12.524;2023-02-05T15:03:20;4.95;;;2.30;;
21862;SDS011;11096;51.338;12.524;2023-02-05T15:05:48;2.83;;;2.28;;
21862;SDS011;11096;51.338;12.524;2023-02-05T15:11:07;3.58;;;2.40;;
21862;SDS011;11096;51.338;12.524;2023-02-05T15:13:35;2.83;;;2.17;;
21862;SDS011;11096;51.338;12.524;2023-02-05T15:21:25;2.05;;;1.63;;
21862;SDS011;11096;51.338;12.524;2023-02-05T15:23:55;4.38;;;2.45;;
21862;SDS011;11096;51.338;12.524;2023-02-05T15:26:25;2.75;;;2.05;;
21862;SDS011;11096;51.338;12.524;2023-02-05T15:29:00;3.25;;;2.28;;
21862;SDS011;11096;51.338;12.524;2023-02-05T15:36:40;4.47;;;2.10;;
21862;SDS011;11096;51.338;12.524;2023-02-05T15:41:33;4.25;;;2.10;;
21862;SDS011;11096;51.338;12.524;2023-02-05T15:44:00;2.90;;;2.08;;
21862;SDS011;11096;51.338;12.524;2023-02-05T15:46:26;3.05;;;2.15;;
21862;SDS011;11096;51.338;12.524;2023-02-05T15:48:51;3.15;;;2.25;;
21862;SDS011;11096;51.338;12.524;2023-02-05T15:53:43;2.30;;;2.10;;
21862;SDS011;11096;51.338;12.524;2023-02-05T15:56:11;3.72;;;2.33;;
21862;SDS011;11096;51.338;12.524;2023-02-05T15:58:39;2.65;;;2.13;;
21862;SDS011;11096;51.338;12.524;2023-02-05T16:01:05;3.80;;;2.53;;
21862;SDS011;11096;51.338;12.524;2023-02-05T16:03:31;4.00;;;2.47;;
21862;SDS011;11096;51.338;12.524;2023-02-05T16:05:57;5.47;;;2.83;;
21862;SDS011;11096;51.338;12.524;2023-02-05T16:08:22;5.03;;;3.08;;
21862;SDS011;11096;51.338;12.524;2023-02-05T16:10:51;7.05;;;3.17;;
21862;SDS011;11096;51.338;12.524;2023-02-05T16:13:18;4.75;;;2.42;;
21862;SDS011;11096;51.338;12.524;2023-02-05T16:16:01;5.00;;;2.72;;
21862;SDS011;11096;51.338;12.524;2023-02-05T16:18:41;3.78;;;2.50;;
21862;SDS011;11096;51.338;12.524;2023-02-05T16:21:12;7.20;;;2.55;;
21862;SDS011;11096;51.338;12.524;2023-02-05T16:23:59;4.13;;;2.53;;
21862;SDS011;11096;51.338;12.524;2023-02-05T16:28:57;4.40;;;2.42;;
21862;SDS011;11096;51.338;12.524;2023-02-05T16:31:24;3.25;;;2.33;;
21862;SDS011;11096;51.338;12.524;2023-02-05T16:36:25;3.78;;;2.65;;
21862;SDS011;11096;51.338;12.524;2023-02-05T16:38:53;3.50;;;2.35;;
21862;SDS011;11096;51.338;12.524;2023-02-05T16:41:23;7.43;;;3.63;;
21862;SDS011;11096;51.338;12.524;2023-02-05T16:43:49;6.53;;;3.65;;
21862;SDS011;11096;51.338;12.524;2023-02-05T16:46:26;6.05;;;3.42;;
21862;SDS011;11096;51.338;12.524;2023-02-05T16:48:52;6.45;;;3.50;;
21862;SDS011;11096;51.338;12.524;2023-02-05T16:53:56;6.65;;;3.50;;
21862;SDS011;11096;51.338;12.524;2023-02-05T16:56:22;5.10;;;3.25;;
21862;SDS011;11096;51.338;12.524;2023-02-05T16:58:49;5.57;;;3.40;;
21862;SDS011;11096;51.338;12.524;2023-02-05T17:01:20;4.80;;;3.05;;
21862;SDS011;11096;51.338;12.524;2023-02-05T17:03:47;6.65;;;3.33;;
21862;SDS011;11096;51.338;12.524;2023-02-05T17:06:13;6.68;;;3.72;;
21862;SDS011;11096;51.338;12.524;2023-02-05T17:08:39;6.35;;;3.33;;
21862;SDS011;11096;51.338;12.524;2023-02-05T17:11:06;8.05;;;3.40;;
21862;SDS011;11096;51.338;12.524;2023-02-05T17:13:42;6.70;;;4.32;;
21862;SDS011;11096;51.338;12.524;2023-02-05T17:16:40;8.52;;;3.95;;
21862;SDS011;11096;51.338;12.524;2023-02-05T17:18:59;10.80;;;5.13;;
21862;SDS011;11096;51.338;12.524;2023-02-05T17:21:26;9.25;;;5.30;;
21862;SDS011;11096;51.338;12.524;2023-02-05T17:23:52;10.55;;;5.15;;
21862;SDS011;11096;51.338;12.524;2023-02-05T17:26:18;12.90;;;5.53;;